Time;durP1;ratioP1;P1;durP2;ratioP2;P2;SDS_P1;SDS_P2;PMS_P1;PMS_P2;Temp;Humidity;BMP_temperature;BMP_pressure;BME280_temperature;BME280_humidity;BME280_pressure;Samples;Min_cycle;Max_cycle;Signal;HPM_P1;HPM_P2
2021/09/26 00:02:07;;;;;;;0.40;0.30;;;;;;;17.03;100.00;100192.56;5024321;28;20535;-49
2021/09/26 00:04:34;;;;;;;0.40;0.20;;;;;;;16.98;100.00;100194.59;5027019;28;21078;-50
2021/09/26 00:07:01;;;;;;;0.40;0.30;;;;;;;16.93;100.00;100192.19;5027177;28;20965;-49
2021/09/26 00:09:29;;;;;;;0.63;0.60;;;;;;;16.93;100.00;100192.19;5026665;28;20456;-51
2021/09/26 00:11:56;;;;;;;0.40;0.20;;;;;;;16.59;100.00;100191.38;5020617;28;20444;-49
2021/09/26 00:14:23;;;;;;;1.23;1.23;;;;;;;16.32;100.00;100186.63;5020033;28;20448;-49
2021/09/26 00:16:50;;;;;;;0.40;0.30;;;;;;;16.44;100.00;100194.00;5026201;28;20530;-50
2021/09/26 00:19:16;;;;;;;0.70;0.60;;;;;;;16.56;100.00;100186.13;5026981;28;20451;-49
2021/09/26 00:21:43;;;;;;;3.80;2.53;;;;;;;16.58;100.00;100184.28;5020879;28;20488;-50
2021/09/26 00:24:10;;;;;;;0.50;0.47;;;;;;;16.51;100.00;100179.31;5019947;28;20514;-50
2021/09/26 00:26:36;;;;;;;0.87;0.87;;;;;;;16.46;100.00;100179.56;5026207;28;20472;-49
2021/09/26 00:29:03;;;;;;;0.77;0.77;;;;;;;16.42;100.00;100177.13;5026824;28;20889;-49
2021/09/26 00:31:30;;;;;;;0.57;0.57;;;;;;;16.39;100.00;100186.19;5018035;28;20449;-50
2021/09/26 00:33:57;;;;;;;0.40;0.20;;;;;;;16.40;100.00;100184.38;5026712;28;20454;-50
2021/09/26 00:36:23;;;;;;;0.40;0.40;;;;;;;16.28;100.00;100181.41;5020349;28;20820;-49
2021/09/26 00:38:50;;;;;;;0.40;0.30;;;;;;;16.26;100.00;100177.94;5019624;28;21020;-49
2021/09/26 00:41:17;;;;;;;0.40;0.20;;;;;;;16.25;100.00;100172.66;5025524;28;20915;-49
2021/09/26 00:43:43;;;;;;;0.40;0.20;;;;;;;16.18;100.00;100168.59;5026434;28;20486;-50
2021/09/26 00:46:10;;;;;;;0.50;0.40;;;;;;;16.09;100.00;100167.25;5020747;28;20475;-49
2021/09/26 00:48:37;;;;;;;0.40;0.20;;;;;;;16.19;100.00;100165.84;5019697;28;20452;-49
2021/09/26 00:51:10;;;;;;;0.40;0.20;;;;;;;16.26;100.00;100167.22;5026625;28;20948;-50
2021/09/26 00:53:41;;;;;;;0.50;0.50;;;;;;;16.26;100.00;100166.34;5027775;28;20448;-49
2021/09/26 00:56:08;;;;;;;2.40;1.07;;;;;;;16.08;100.00;100173.56;5023876;28;20588;-50
2021/09/26 00:58:35;;;;;;;0.60;0.60;;;;;;;16.06;100.00;100180.84;5026508;28;20591;-49
2021/09/26 01:01:02;;;;;;;0.40;0.30;;;;;;;16.07;100.00;100176.34;5023722;28;21015;-49
2021/09/26 01:03:29;;;;;;;0.40;0.20;;;;;;;15.91;100.00;100171.78;5019477;28;20538;-49
2021/09/26 01:06:05;;;;;;;0.40;0.37;;;;;;;15.69;100.00;100172.03;5021687;28;20472;-50
2021/09/26 01:08:49;;;;;;;0.67;0.67;;;;;;;15.62;100.00;100159.00;5025775;28;20444;-50
2021/09/26 01:11:58;;;;;;;0.40;0.20;;;;;;;15.53;100.00;100170.19;5026067;28;20921;-49
2021/09/26 01:14:34;;;;;;;0.97;0.97;;;;;;;15.44;100.00;100171.50;5017044;28;21018;-49
2021/09/26 01:17:00;;;;;;;0.40;0.30;;;;;;;15.51;100.00;100183.66;5022275;28;20947;-51
2021/09/26 01:20:15;;;;;;;0.67;0.67;;;;;;;15.63;100.00;100177.72;5017822;28;20448;-49
2021/09/26 01:23:05;;;;;;;4.07;2.20;;;;;;;15.59;100.00;100165.41;4939190;29;20495;-48
2021/09/26 01:25:53;;;;;;;0.40;0.30;;;;;;;15.46;100.00;100171.44;4940175;28;20927;-49
2021/09/26 01:28:34;;;;;;;0.40;0.20;;;;;;;15.51;100.00;100167.59;5004327;28;20448;-49
2021/09/26 01:31:21;;;;;;;18.33;1.70;;;;;;;15.29;100.00;100164.25;5018132;28;20440;-48
2021/09/26 01:34:08;;;;;;;1.23;0.67;;;;;;;15.26;100.00;100172.44;5025692;28;20957;-48
2021/09/26 01:36:52;;;;;;;0.93;0.93;;;;;;;15.38;100.00;100169.16;5022602;28;20463;-49
2021/09/26 01:39:30;;;;;;;0.40;0.20;;;;;;;15.38;100.00;100182.53;5018907;28;20961;-49
2021/09/26 01:42:06;;;;;;;0.60;0.60;;;;;;;15.25;100.00;100184.97;5018619;28;20492;-51
2021/09/26 01:44:38;;;;;;;0.40;0.30;;;;;;;15.16;100.00;100197.94;5023539;28;20971;-49
2021/09/26 01:47:06;;;;;;;0.40;0.30;;;;;;;15.05;100.00;100195.75;5025508;28;20519;-48
2021/09/26 01:49:40;;;;;;;0.50;0.50;;;;;;;14.97;100.00;100206.88;5018801;28;20448;-49
2021/09/26 01:52:18;;;;;;;0.40;0.20;;;;;;;15.02;100.00;100210.16;5030271;28;20471;-49
2021/09/26 01:54:46;;;;;;;6.63;1.13;;;;;;;14.80;100.00;100212.13;5018881;28;20949;-49
2021/09/26 01:57:16;;;;;;;0.60;0.60;;;;;;;14.78;100.00;100205.97;5018980;28;20447;-49
2021/09/26 01:59:43;;;;;;;0.60;0.53;;;;;;;14.85;100.00;100202.09;5018402;28;20456;-48
2021/09/26 02:02:09;;;;;;;0.40;0.30;;;;;;;14.74;100.00;100191.88;5024827;28;20496;-49
2021/09/26 02:04:37;;;;;;;0.47;0.40;;;;;;;14.68;100.00;100188.66;5025358;28;20526;-50
2021/09/26 02:07:04;;;;;;;0.40;0.20;;;;;;;14.73;100.00;100192.84;5019253;28;20980;-48
2021/09/26 02:09:31;;;;;;;0.73;0.73;;;;;;;14.87;100.00;100189.50;5018717;28;20472;-49
2021/09/26 02:11:58;;;;;;;0.40;0.20;;;;;;;14.85;100.00;100182.50;5024664;28;20494;-50
2021/09/26 02:14:25;;;;;;;0.40;0.30;;;;;;;14.84;100.00;100188.78;5025149;28;20451;-49
2021/09/26 02:16:52;;;;;;;0.50;0.43;;;;;;;14.94;100.00;100188.28;5019681;28;21004;-49
2021/09/26 02:19:21;;;;;;;0.60;0.60;;;;;;;14.77;100.00;100183.72;5018510;28;20448;-49
2021/09/26 02:21:48;;;;;;;1.23;1.23;;;;;;;14.29;100.00;100183.31;5023443;28;20492;-48
2021/09/26 02:24:15;;;;;;;0.40;0.40;;;;;;;14.53;100.00;100182.22;5025410;28;20554;-49
2021/09/26 02:26:42;;;;;;;0.83;0.80;;;;;;;14.37;100.00;100186.47;5019961;28;20472;-49
2021/09/26 02:29:08;;;;;;;0.60;0.60;;;;;;;14.28;100.00;100187.78;5018481;28;20461;-48
2021/09/26 02:31:37;;;;;;;0.40;0.20;;;;;;;14.32;100.00;100183.16;5023721;28;21008;-49
2021/09/26 02:34:04;;;;;;;0.40;0.20;;;;;;;14.33;100.00;100196.44;5027369;28;20487;-49
2021/09/26 02:36:30;;;;;;;0.50;0.40;;;;;;;14.45;100.00;100195.94;5024627;28;20463;-49
2021/09/26 02:38:57;;;;;;;0.40;0.20;;;;;;;14.30;100.00;100185.91;5021933;28;20452;-49
2021/09/26 02:41:38;;;;;;;0.70;0.70;;;;;;;14.17;100.00;100192.75;5025950;28;20542;-48
2021/09/26 02:44:23;;;;;;;0.40;0.30;;;;;;;14.23;100.00;100187.97;5028554;28;20506;-48
2021/09/26 02:47:00;;;;;;;1.23;1.13;;;;;;;14.23;100.00;100187.09;5028191;28;20478;-48
2021/09/26 02:49:28;;;;;;;0.60;0.60;;;;;;;14.29;100.00;100192.19;5022083;28;20804;-48
2021/09/26 02:51:55;;;;;;;1.90;1.80;;;;;;;14.21;100.00;100188.97;5031547;28;20465;-48
2021/09/26 02:54:22;;;;;;;0.40;0.30;;;;;;;14.24;100.00;100194.19;5024878;28;20996;-48
2021/09/26 02:56:50;;;;;;;1.90;1.33;;;;;;;14.20;100.00;100196.13;5030749;28;21054;-49
2021/09/26 02:59:19;;;;;;;0.40;0.20;;;;;;;14.28;100.00;100198.47;5024752;28;20483;-48
2021/09/26 03:01:54;;;;;;;1.60;1.13;;;;;;;14.14;100.00;100191.06;5029742;28;21048;-48
2021/09/26 03:04:21;;;;;;;8.03;2.93;;;;;;;14.09;100.00;100190.41;5028580;28;20451;-48
2021/09/26 03:06:48;;;;;;;1.27;1.27;;;;;;;13.80;100.00;100183.66;5021731;28;21046;-48
2021/09/26 03:09:15;;;;;;;0.50;0.50;;;;;;;13.91;100.00;100183.19;5022578;28;20452;-48
2021/09/26 03:11:42;;;;;;;1.87;1.77;;;;;;;13.96;100.00;100177.63;5027772;28;20498;-48
2021/09/26 03:14:09;;;;;;;0.50;0.50;;;;;;;14.03;100.00;100182.66;5027586;28;20485;-50
2021/09/26 03:16:35;;;;;;;1.67;1.20;;;;;;;13.94;100.00;100191.06;5020910;28;20476;-48
2021/09/26 03:19:02;;;;;;;0.40;0.20;;;;;;;14.02;100.00;100188.06;5021751;28;20833;-48
2021/09/26 03:21:29;;;;;;;0.87;0.87;;;;;;;13.93;100.00;100179.53;5027852;28;20453;-48
2021/09/26 03:23:57;;;;;;;0.40;0.20;;;;;;;13.84;100.00;100179.94;5027627;28;20872;-48
2021/09/26 03:26:25;;;;;;;0.50;0.43;;;;;;;13.81;100.00;100181.84;5019579;28;20782;-48
2021/09/26 03:28:52;;;;;;;0.40;0.20;;;;;;;13.68;100.00;100186.88;5021161;28;20476;-51
2021/09/26 03:31:19;;;;;;;0.40;0.20;;;;;;;13.70;100.00;100182.31;5027430;28;20480;-48
2021/09/26 03:33:46;;;;;;;0.50;0.50;;;;;;;13.72;100.00;100180.47;5027487;28;20967;-48
2021/09/26 03:36:13;;;;;;;0.40;0.20;;;;;;;13.75;100.00;100182.13;5021783;28;21046;-48
2021/09/26 03:38:39;;;;;;;0.40;0.20;;;;;;;13.75;100.00;100185.69;5020735;28;20884;-48
2021/09/26 03:41:06;;;;;;;0.40;0.30;;;;;;;13.50;100.00;100177.84;5026153;28;20483;-48
2021/09/26 03:43:33;;;;;;;0.50;0.40;;;;;;;13.55;100.00;100178.50;5026860;28;20842;-48
2021/09/26 03:45:59;;;;;;;0.40;0.30;;;;;;;13.61;100.00;100185.41;5022258;28;20525;-48
2021/09/26 03:48:27;;;;;;;0.70;0.40;;;;;;;13.63;100.00;100178.19;5020368;28;20830;-48
2021/09/26 03:50:53;;;;;;;0.40;0.30;;;;;;;13.26;100.00;100177.06;5027810;28;20867;-48
2021/09/26 03:53:21;;;;;;;0.40;0.20;;;;;;;13.31;100.00;100172.41;5032320;28;20493;-48
2021/09/26 03:55:47;;;;;;;0.40;0.40;;;;;;;13.21;100.00;100181.72;5022228;28;20529;-48
2021/09/26 03:58:14;;;;;;;0.50;0.37;;;;;;;13.32;100.00;100175.97;5030726;28;20447;-48
2021/09/26 04:00:41;;;;;;;0.60;0.60;;;;;;;13.40;100.00;100171.16;5021839;28;20764;-49
2021/09/26 04:03:08;;;;;;;2.40;0.77;;;;;;;13.38;100.00;100181.03;5020269;28;20858;-48
2021/09/26 04:05:34;;;;;;;0.40;0.30;;;;;;;13.40;100.00;100188.97;5025213;28;20480;-49
2021/09/26 04:08:01;;;;;;;0.53;0.47;;;;;;;13.29;100.00;100194.75;5026904;28;20485;-48
2021/09/26 04:10:27;;;;;;;0.40;0.20;;;;;;;13.26;100.00;100197.53;5022351;28;20475;-50
2021/09/26 04:12:54;;;;;;;1.57;1.43;;;;;;;13.26;100.00;100189.53;5020022;28;20872;-48
2021/09/26 04:15:21;;;;;;;0.87;0.60;;;;;;;13.14;100.00;100185.53;5024832;28;20519;-49
2021/09/26 04:17:47;;;;;;;0.40;0.40;;;;;;;13.27;100.00;100184.13;5026696;28;20949;-48
2021/09/26 04:20:14;;;;;;;0.40;0.40;;;;;;;13.14;100.00;100187.34;5023130;28;20660;-48
2021/09/26 04:22:40;;;;;;;0.80;0.80;;;;;;;13.40;100.00;100197.84;5020083;28;20535;-49
2021/09/26 04:25:08;;;;;;;0.50;0.50;;;;;;;13.44;100.00;100199.47;5023874;28;20515;-49
2021/09/26 04:27:35;;;;;;;0.40;0.40;;;;;;;13.19;100.00;100194.28;5026660;28;20456;-49
2021/09/26 04:30:03;;;;;;;1.00;1.00;;;;;;;13.18;100.00;100195.22;5023024;28;20455;-49
2021/09/26 04:32:30;;;;;;;2.47;2.33;;;;;;;13.12;100.00;100203.41;5019600;28;20455;-48
2021/09/26 04:34:56;;;;;;;0.40;0.20;;;;;;;13.03;100.00;100190.47;5023191;28;20983;-49
2021/09/26 04:37:23;;;;;;;0.63;0.60;;;;;;;13.08;100.00;100190.25;5026659;28;20480;-49
2021/09/26 04:39:50;;;;;;;0.40;0.20;;;;;;;13.07;100.00;100183.19;5022896;28;20941;-49
2021/09/26 04:42:16;;;;;;;0.40;0.20;;;;;;;13.22;100.00;100198.63;5019498;28;20487;-49
2021/09/26 04:44:43;;;;;;;0.50;0.40;;;;;;;13.11;100.00;100193.66;5022905;28;20445;-49
2021/09/26 04:47:10;;;;;;;0.40;0.27;;;;;;;13.04;100.00;100203.75;5026199;28;20452;-48
2021/09/26 04:49:37;;;;;;;0.37;0.20;;;;;;;12.93;100.00;100191.75;5019399;28;20937;-49
2021/09/26 04:52:04;;;;;;;0.40;0.30;;;;;;;12.91;100.00;100188.28;5030345;28;20940;-49
2021/09/26 04:54:31;;;;;;;1.10;0.97;;;;;;;12.82;100.00;100184.16;5021364;28;20456;-49
2021/09/26 04:56:58;;;;;;;0.40;0.30;;;;;;;12.75;100.00;100194.22;5029569;28;20475;-49
2021/09/26 04:59:24;;;;;;;0.40;0.30;;;;;;;12.62;100.00;100194.75;5021253;28;20512;-49
2021/09/26 05:01:51;;;;;;;0.80;0.53;;;;;;;12.57;100.00;100194.03;5026060;28;20452;-50
2021/09/26 05:04:19;;;;;;;0.40;0.30;;;;;;;12.75;100.00;100199.56;5024494;28;20456;-49
2021/09/26 05:06:45;;;;;;;0.40;0.40;;;;;;;12.72;100.00;100194.31;5019095;28;20499;-48
2021/09/26 05:09:12;;;;;;;0.40;0.40;;;;;;;12.89;100.00;100193.69;5020789;28;20460;-48
2021/09/26 05:11:38;;;;;;;0.40;0.30;;;;;;;12.88;100.00;100199.91;5026051;28;20457;-49
2021/09/26 05:14:05;;;;;;;0.63;0.63;;;;;;;12.73;100.00;100200.53;5024844;28;20483;-49
2021/09/26 05:16:32;;;;;;;0.50;0.50;;;;;;;12.84;100.00;100200.97;5019274;28;20506;-49
2021/09/26 05:18:59;;;;;;;0.40;0.30;;;;;;;12.83;100.00;100201.03;5019793;28;20515;-49
2021/09/26 05:21:25;;;;;;;0.40;0.20;;;;;;;12.82;100.00;100199.31;5025553;28;20475;-49
2021/09/26 05:23:52;;;;;;;0.53;0.37;;;;;;;12.74;100.00;100195.13;5025233;28;20483;-49
2021/09/26 05:26:19;;;;;;;0.87;0.87;;;;;;;12.65;100.00;100207.97;5018902;28;20471;-49
2021/09/26 05:28:45;;;;;;;0.67;0.67;;;;;;;12.75;100.00;100194.22;5019321;28;20530;-49
2021/09/26 05:31:12;;;;;;;0.40;0.20;;;;;;;12.70;100.00;100204.19;5025587;28;20479;-49
2021/09/26 05:33:38;;;;;;;0.40;0.30;;;;;;;12.77;100.00;100207.50;5025277;28;20479;-50
2021/09/26 05:36:05;;;;;;;0.40;0.30;;;;;;;12.77;100.00;100207.50;5018876;28;20503;-49
2021/09/26 05:38:32;;;;;;;0.37;0.30;;;;;;;12.82;100.00;100205.50;5019019;28;20488;-50
2021/09/26 05:40:59;;;;;;;0.40;0.20;;;;;;;12.66;100.00;100221.25;5025426;28;20457;-49
2021/09/26 05:43:25;;;;;;;1.90;1.80;;;;;;;12.74;100.00;100212.94;5025261;28;20484;-49
2021/09/26 05:45:52;;;;;;;0.40;0.30;;;;;;;12.75;100.00;100215.56;5019063;28;20474;-50
2021/09/26 05:48:19;;;;;;;0.30;0.20;;;;;;;12.82;100.00;100205.50;5018801;28;20459;-49
2021/09/26 05:50:45;;;;;;;0.40;0.30;;;;;;;12.75;100.00;100210.22;5026204;28;20486;-49
2021/09/26 05:53:12;;;;;;;0.40;0.30;;;;;;;12.84;100.00;100202.78;5031685;28;20451;-49
2021/09/26 05:55:39;;;;;;;0.30;0.20;;;;;;;12.96;100.00;100213.84;5019388;28;20996;-49
2021/09/26 05:58:05;;;;;;;0.40;0.30;;;;;;;13.06;100.00;100225.03;5030218;28;20452;-49
2021/09/26 06:00:32;;;;;;;1.23;1.07;;;;;;;13.08;100.00;100223.16;5019406;28;20452;-49
2021/09/26 06:02:59;;;;;;;0.40;0.30;;;;;;;13.09;100.00;100224.91;5018561;28;20519;-49
2021/09/26 06:05:26;;;;;;;0.40;0.30;;;;;;;13.07;100.00;100228.56;5024477;28;20476;-49
2021/09/26 06:07:52;;;;;;;0.60;0.60;;;;;;;13.17;100.00;100228.13;5027659;28;20961;-50
2021/09/26 06:10:20;;;;;;;3.37;1.37;;;;;;;13.27;100.00;100231.31;5023729;28;20455;-49
2021/09/26 06:12:46;;;;;;;0.40;0.20;;;;;;;13.27;100.00;100237.53;5022345;28;20455;-49
2021/09/26 06:15:13;;;;;;;0.40;0.30;;;;;;;13.16;100.00;100239.75;5027263;28;21004;-49
2021/09/26 06:17:40;;;;;;;0.87;0.87;;;;;;;13.32;100.00;100243.56;5029308;28;20506;-49
2021/09/26 06:20:07;;;;;;;0.40;0.20;;;;;;;13.52;100.00;100241.88;5024243;28;20509;-49
2021/09/26 06:22:34;;;;;;;0.70;0.70;;;;;;;13.53;100.00;100230.25;5021991;28;20488;-49
2021/09/26 06:25:00;;;;;;;0.57;0.57;;;;;;;13.58;100.00;100250.50;5027037;28;20448;-49
2021/09/26 06:27:27;;;;;;;0.40;0.30;;;;;;;13.70;100.00;100256.25;5028936;28;20478;-49
2021/09/26 06:29:54;;;;;;;1.03;1.03;;;;;;;13.87;100.00;100257.28;5023723;28;20444;-49
2021/09/26 06:32:22;;;;;;;0.30;0.20;;;;;;;14.04;100.00;100253.88;5022020;28;20522;-49
2021/09/26 06:34:49;;;;;;;2.67;0.63;;;;;;;14.07;100.00;100253.75;5026951;28;20457;-49
2021/09/26 06:37:16;;;;;;;0.40;0.30;;;;;;;14.04;100.00;100251.22;5028772;28;20448;-49
2021/09/26 06:39:43;;;;;;;0.77;0.77;;;;;;;14.14;100.00;100244.53;5024140;28;20455;-50
2021/09/26 06:42:10;;;;;;;6.70;2.60;;;;;;;14.22;100.00;100258.41;5021620;28;20954;-49
2021/09/26 06:44:36;;;;;;;0.77;0.77;;;;;;;14.32;100.00;100258.03;5026534;28;20476;-49
2021/09/26 06:47:03;;;;;;;0.30;0.20;;;;;;;14.37;100.00;100256.00;5028209;28;21047;-50
2021/09/26 06:49:30;;;;;;;0.40;0.20;;;;;;;14.42;100.00;100236.16;5021931;28;20501;-49
2021/09/26 06:51:56;;;;;;;0.40;0.30;;;;;;;14.58;100.00;100243.50;5031785;28;20505;-49
2021/09/26 06:54:23;;;;;;;0.40;0.20;;;;;;;14.61;100.00;100246.03;5025039;28;20552;-49
2021/09/26 06:56:49;;;;;;;0.50;0.50;;;;;;;14.71;100.00;100237.53;5030160;28;20467;-50
2021/09/26 06:59:16;;;;;;;0.40;0.20;;;;;;;14.85;100.00;100250.25;5024494;28;20867;-49
2021/09/26 07:01:43;;;;;;;0.40;0.20;;;;;;;14.84;100.00;100245.00;5028300;28;20452;-49
2021/09/26 07:04:09;;;;;;;0.50;0.50;;;;;;;14.99;100.00;100250.47;5025389;28;21000;-50
2021/09/26 07:06:36;;;;;;;1.17;1.07;;;;;;;15.21;100.00;100260.16;5021468;28;20521;-49
2021/09/26 07:09:03;;;;;;;0.40;0.40;;;;;;;15.27;100.00;100259.88;5023948;28;20845;-50
2021/09/26 07:11:30;;;;;;;0.30;0.20;;;;;;;15.35;100.00;100263.03;5028276;28;20449;-49
2021/09/26 07:13:56;;;;;;;0.40;0.30;;;;;;;15.38;100.00;100258.41;5025718;28;20448;-50
2021/09/26 07:16:23;;;;;;;3.60;2.93;;;;;;;15.51;100.00;100258.69;5021127;28;21088;-49
2021/09/26 07:18:51;;;;;;;6.53;1.80;;;;;;;15.70;100.00;100259.53;5022452;28;20477;-50
2021/09/26 07:21:18;;;;;;;0.40;0.40;;;;;;;15.72;100.00;100255.91;5026749;28;20506;-50
2021/09/26 07:23:45;;;;;;;0.50;0.30;;;;;;;15.79;100.00;100238.56;5026430;28;20488;-50
2021/09/26 07:26:12;;;;;;;0.40;0.30;;;;;;;15.78;100.00;100234.16;5021137;28;20529;-50
2021/09/26 07:28:39;;;;;;;0.40;0.27;;;;;;;15.84;100.00;100237.38;5022956;28;20499;-50
2021/09/26 07:31:06;;;;;;;0.40;0.20;;;;;;;15.86;100.00;100248.88;5026376;28;20887;-50
2021/09/26 07:33:33;;;;;;;0.43;0.43;;;;;;;15.96;100.00;100239.44;5026539;28;20494;-50
2021/09/26 07:36:00;;;;;;;0.73;0.73;;;;;;;16.14;100.00;100240.28;5020846;28;20463;-50
2021/09/26 07:38:27;;;;;;;0.50;0.40;;;;;;;16.24;100.00;100249.59;5021653;28;20961;-50
2021/09/26 07:40:54;;;;;;;0.77;0.77;;;;;;;16.41;100.00;100264.78;5028025;28;20449;-50
2021/09/26 07:43:21;;;;;;;0.80;0.40;;;;;;;16.51;100.00;100258.00;5026900;28;20495;-50
2021/09/26 07:45:55;;;;;;;1.00;0.50;;;;;;;16.57;100.00;100257.66;5008157;28;20571;-50
2021/09/26 07:48:25;;;;;;;4.63;2.50;;;;;;;16.78;100.00;100271.78;5020488;28;20917;-50
2021/09/26 07:50:53;;;;;;;0.43;0.40;;;;;;;16.78;100.00;100274.47;5027696;28;20448;-50
2021/09/26 07:53:20;;;;;;;0.40;0.20;;;;;;;16.75;100.00;100271.94;5032661;28;20824;-50
2021/09/26 07:55:51;;;;;;;0.77;0.77;;;;;;;16.75;100.00;100263.91;5022116;28;20468;-50
2021/09/26 07:58:18;;;;;;;1.00;0.60;;;;;;;16.80;100.00;100271.69;5029888;28;20501;-50
2021/09/26 08:00:45;;;;;;;0.40;0.30;;;;;;;16.68;100.00;100275.91;5022873;28;20898;-50
2021/09/26 08:03:11;;;;;;;0.60;0.50;;;;;;;16.85;100.00;100278.53;5020098;28;20504;-50
2021/09/26 08:05:39;;;;;;;0.40;0.20;;;;;;;17.09;100.00;100292.44;5024773;28;20837;-50
2021/09/26 08:08:05;;;;;;;0.40;0.30;;;;;;;17.32;100.00;100288.47;5027042;28;20452;-50
2021/09/26 08:10:32;;;;;;;0.40;0.30;;;;;;;17.39;100.00;100291.66;5023309;28;20510;-50
2021/09/26 08:12:59;;;;;;;0.40;0.20;;;;;;;17.46;100.00;100291.25;5020079;28;20502;-50
2021/09/26 08:15:25;;;;;;;0.50;0.40;;;;;;;17.52;100.00;100286.47;5023699;28;20908;-50
2021/09/26 08:17:52;;;;;;;1.53;1.50;;;;;;;17.46;100.00;100279.63;5026586;28;20452;-50
2021/09/26 08:20:18;;;;;;;0.40;0.20;;;;;;;17.61;100.00;100286.81;5023379;28;20506;-50
2021/09/26 08:22:45;;;;;;;0.47;0.40;;;;;;;17.81;100.00;100287.50;5019618;28;20447;-50
2021/09/26 08:25:13;;;;;;;0.50;0.50;;;;;;;17.82;100.00;100292.81;5023394;28;20480;-50
2021/09/26 08:27:40;;;;;;;0.50;0.50;;;;;;;18.04;100.00;100305.84;5026557;28;20487;-50
2021/09/26 08:30:09;;;;;;;0.40;0.20;;;;;;;18.06;100.00;100310.16;5023456;28;20456;-50
2021/09/26 08:32:38;;;;;;;1.10;0.87;;;;;;;18.32;100.00;100314.00;5019662;28;20454;-50
2021/09/26 08:35:07;;;;;;;2.30;0.70;;;;;;;18.35;99.91;100307.56;5021931;28;20476;-50
2021/09/26 08:37:33;;;;;;;0.50;0.30;;;;;;;18.39;99.36;100305.56;5026441;28;20456;-50
2021/09/26 08:40:00;;;;;;;1.90;0.97;;;;;;;18.32;100.00;100308.63;5025012;28;20988;-50
2021/09/26 08:42:27;;;;;;;0.40;0.30;;;;;;;18.43;100.00;100296.34;5019677;28;20444;-50
2021/09/26 08:44:54;;;;;;;0.50;0.30;;;;;;;18.62;100.00;100299.63;5020485;28;20492;-50
2021/09/26 08:47:21;;;;;;;0.50;0.50;;;;;;;18.73;100.00;100288.22;5026259;28;20448;-50
2021/09/26 08:49:49;;;;;;;0.63;0.63;;;;;;;18.63;100.00;100290.59;5020392;28;20491;-50
2021/09/26 08:52:16;;;;;;;0.40;0.20;;;;;;;18.87;100.00;100291.78;5032360;28;20820;-50
2021/09/26 08:54:42;;;;;;;0.60;0.60;;;;;;;18.87;100.00;100291.78;5020115;28;20484;-50
2021/09/26 08:57:09;;;;;;;0.40;0.30;;;;;;;18.84;100.00;100305.44;5029885;28;20479;-50
2021/09/26 08:59:36;;;;;;;0.50;0.30;;;;;;;18.89;100.00;100297.06;5019766;28;20470;-50
2021/09/26 09:02:03;;;;;;;0.40;0.33;;;;;;;18.84;100.00;100286.59;5026017;28;20453;-50
2021/09/26 09:04:37;;;;;;;0.57;0.57;;;;;;;18.97;100.00;100291.22;5026079;28;20526;-50
2021/09/26 09:07:06;;;;;;;0.50;0.40;;;;;;;18.98;100.00;100306.41;5008176;28;20486;-50
2021/09/26 09:09:47;;;;;;;0.63;0.63;;;;;;;19.14;100.00;100294.56;5018019;28;20452;-50
2021/09/26 09:12:15;;;;;;;0.40;0.30;;;;;;;19.20;100.00;100288.78;5022613;28;20483;-50
2021/09/26 09:14:48;;;;;;;0.40;0.20;;;;;;;19.27;100.00;100293.78;5025993;28;20933;-50
2021/09/26 09:17:35;;;;;;;0.63;0.63;;;;;;;19.29;100.00;100291.84;5023750;28;20510;-51
2021/09/26 09:20:20;;;;;;;0.77;0.77;;;;;;;19.42;100.00;100317.03;5025615;28;20444;-50
2021/09/26 09:22:51;;;;;;;0.40;0.27;;;;;;;19.40;100.00;100318.97;5026432;28;21003;-50
2021/09/26 09:25:37;;;;;;;0.50;0.43;;;;;;;19.50;100.00;100321.00;5024086;28;20464;-50
2021/09/26 09:28:08;;;;;;;0.47;0.43;;;;;;;19.52;100.00;100324.44;5020375;28;20505;-53
2021/09/26 09:30:38;;;;;;;0.40;0.27;;;;;;;19.69;100.00;100328.75;5022329;28;20501;-50
2021/09/26 09:33:06;;;;;;;0.43;0.30;;;;;;;19.59;100.00;100335.72;5020680;28;20501;-50
2021/09/26 09:35:44;;;;;;;1.80;0.80;;;;;;;19.69;100.00;100339.53;5019097;28;20530;-50
2021/09/26 09:38:12;;;;;;;8.80;1.90;;;;;;;19.57;100.00;100343.03;5022566;28;20491;-50
2021/09/26 09:40:40;;;;;;;0.40;0.30;;;;;;;19.76;100.00;100343.59;5025749;28;20978;-49
2021/09/26 09:43:07;;;;;;;0.40;0.20;;;;;;;19.62;100.00;100340.94;5026371;28;20500;-50
2021/09/26 09:45:56;;;;;;;0.60;0.60;;;;;;;19.80;100.00;100337.00;5023078;28;20533;-49
2021/09/26 09:48:31;;;;;;;0.60;0.60;;;;;;;19.93;100.00;100342.47;5022873;28;20452;-50
2021/09/26 09:51:06;;;;;;;0.50;0.50;;;;;;;19.83;100.00;100339.50;5021683;28;20480;-51
2021/09/26 09:53:35;;;;;;;0.40;0.30;;;;;;;19.77;100.00;100337.22;5029883;28;20531;-49
2021/09/26 09:56:20;;;;;;;0.40;0.20;;;;;;;19.81;100.00;100336.06;5027180;28;20502;-49
2021/09/26 09:58:58;;;;;;;0.93;0.93;;;;;;;19.92;100.00;100335.34;5029094;28;20473;-50
2021/09/26 10:01:28;;;;;;;0.40;0.30;;;;;;;19.85;100.00;100336.69;5029406;28;20945;-49
2021/09/26 10:04:02;;;;;;;0.40;0.30;;;;;;;19.88;100.00;100341.06;5024842;28;20487;-50
2021/09/26 10:06:42;;;;;;;0.40;0.20;;;;;;;20.06;100.00;100324.50;5022434;28;20471;-49
2021/09/26 10:09:28;;;;;;;2.17;2.10;;;;;;;19.88;100.00;100325.72;5024766;28;20563;-49
2021/09/26 10:11:57;;;;;;;0.40;0.20;;;;;;;19.78;100.00;100320.06;5011559;28;20590;-50
2021/09/26 10:14:27;;;;;;;0.40;0.30;;;;;;;19.75;100.00;100319.41;5022850;28;20523;-49
2021/09/26 10:16:56;;;;;;;0.40;0.30;;;;;;;19.81;100.00;100321.69;5027221;28;20506;-49
2021/09/26 10:19:25;;;;;;;1.13;1.13;;;;;;;19.77;100.00;100326.44;5029064;28;20952;-49
2021/09/26 10:21:55;;;;;;;0.40;0.40;;;;;;;19.93;100.00;100323.56;5025167;28;21027;-50
2021/09/26 10:24:29;;;;;;;0.43;0.37;;;;;;;20.23;100.00;100341.38;5021145;28;20933;-49
2021/09/26 10:27:04;;;;;;;0.40;0.30;;;;;;;20.30;100.00;100354.38;5025673;28;20464;-50
2021/09/26 10:29:32;;;;;;;0.40;0.30;;;;;;;20.22;100.00;100351.31;5031261;28;20444;-50
2021/09/26 10:32:02;;;;;;;0.50;0.30;;;;;;;20.17;100.00;100363.41;5022434;28;20451;-50
2021/09/26 10:34:30;;;;;;;0.50;0.33;;;;;;;20.11;100.00;100367.34;5030025;28;20449;-50
2021/09/26 10:37:01;;;;;;;1.07;0.80;;;;;;;20.12;100.00;100366.38;5029056;28;20922;-53
2021/09/26 10:39:29;;;;;;;0.40;0.20;;;;;;;20.06;100.00;100364.97;5022565;28;20882;-51
2021/09/26 10:42:01;;;;;;;0.50;0.47;;;;;;;20.09;100.00;100372.00;5024868;28;20456;-49
2021/09/26 10:44:28;;;;;;;0.40;0.30;;;;;;;19.99;100.00;100377.13;5026923;28;21043;-50
2021/09/26 10:47:18;;;;;;;1.33;1.33;;;;;;;19.98;100.00;100386.19;5028875;28;20468;-50
2021/09/26 10:49:48;;;;;;;0.40;0.30;;;;;;;20.00;100.00;100394.19;5022240;28;20444;-49
2021/09/26 10:52:30;;;;;;;0.60;0.43;;;;;;;19.59;100.00;100378.88;5034209;28;20443;-49
2021/09/26 10:55:23;;;;;;;1.63;1.53;;;;;;;19.41;100.00;100374.63;5021595;28;20445;-49
2021/09/26 10:57:52;;;;;;;0.83;0.83;;;;;;;19.03;100.00;100352.78;5023196;28;20447;-49
2021/09/26 11:00:29;;;;;;;0.40;0.30;;;;;;;18.80;100.00;100335.38;5021394;28;20456;-49
2021/09/26 11:03:13;;;;;;;1.50;1.40;;;;;;;18.79;100.00;100339.91;5021918;28;20455;-49
2021/09/26 11:05:42;;;;;;;0.40;0.27;;;;;;;18.80;100.00;100351.53;5025484;28;20467;-49
2021/09/26 11:08:16;;;;;;;0.40;0.30;;;;;;;18.62;100.00;100345.41;5028123;28;20444;-50
2021/09/26 11:10:44;;;;;;;1.47;1.40;;;;;;;18.55;100.00;100344.91;5025971;28;20517;-49
2021/09/26 11:13:16;;;;;;;0.63;0.63;;;;;;;18.66;100.00;100335.38;5021017;28;20451;-49
2021/09/26 11:16:05;;;;;;;0.40;0.30;;;;;;;18.57;100.00;100334.91;5023026;28;20492;-50
2021/09/26 11:18:48;;;;;;;1.50;1.40;;;;;;;18.63;100.00;100337.25;5012547;28;20448;-51
2021/09/26 11:21:43;;;;;;;1.17;0.50;;;;;;;18.81;100.00;100332.59;5023335;28;20456;-50
2021/09/26 11:24:14;;;;;;;0.40;0.30;;;;;;;18.85;100.00;100335.94;5021182;28;21013;-50
2021/09/26 11:26:56;;;;;;;0.40;0.30;;;;;;;18.86;100.00;100334.97;5025921;28;20515;-49
2021/09/26 11:29:23;;;;;;;0.40;0.30;;;;;;;18.90;100.00;100342.78;5028074;28;20473;-50